createdAt,value
2023-02-17T00:02:37.794Z,7.50
2023-02-17T00:07:41.197Z,7.30
2023-02-17T00:12:44.494Z,7.20
2023-02-17T00:17:49.063Z,7.00
2023-02-17T00:22:52.348Z,7.00
2023-02-17T00:27:56.032Z,7.00
2023-02-17T00:33:00.715Z,6.90
2023-02-17T00:38:03.991Z,6.90
2023-02-17T00:43:08.617Z,6.90
2023-02-17T00:48:13.329Z,6.80
2023-02-17T00:53:18.532Z,6.90
2023-02-17T00:58:21.745Z,6.80
2023-02-17T01:03:27.486Z,6.90
2023-02-17T01:08:30.659Z,6.80
2023-02-17T01:13:34.224Z,6.90
2023-02-17T01:18:39.014Z,7.10
2023-02-17T01:23:42.634Z,7.00
2023-02-17T01:28:46.116Z,7.20
2023-02-17T01:33:51.230Z,7.20
2023-02-17T01:38:54.626Z,7.10
2023-02-17T01:44:08.314Z,7.00
2023-02-17T01:49:31.307Z,7.20
2023-02-17T01:54:40.566Z,7.20
2023-02-17T01:59:46.001Z,7.10
2023-02-17T02:04:53.678Z,7.20
2023-02-17T02:09:58.872Z,7.00
2023-02-17T02:15:09.428Z,7.00
2023-02-17T02:20:57.333Z,7.00
2023-02-17T02:26:52.243Z,6.90
2023-02-17T02:32:08.733Z,6.90
2023-02-17T02:37:17.984Z,7.10
2023-02-17T02:42:23.928Z,7.10
2023-02-17T02:47:53.048Z,7.00
2023-02-17T02:53:19.691Z,7.10
2023-02-17T02:58:30.603Z,7.10
2023-02-17T03:03:40.268Z,7.10
2023-02-17T03:08:51.613Z,7.10
2023-02-17T03:13:54.894Z,7.00
2023-02-17T03:18:58.459Z,7.00
2023-02-17T03:24:05.115Z,7.10
2023-02-17T03:29:08.832Z,7.20
2023-02-17T03:34:12.214Z,7.20
2023-02-17T03:39:17.014Z,7.20
2023-02-17T03:44:20.784Z,7.20
2023-02-17T03:49:24.889Z,7.30
2023-02-17T03:54:29.488Z,7.30
2023-02-17T03:59:32.716Z,7.20
2023-02-17T04:04:36.427Z,7.30
2023-02-17T04:09:41.529Z,7.30
2023-02-17T04:14:44.802Z,7.30
2023-02-17T04:19:48.036Z,7.30
2023-02-17T04:24:52.996Z,7.30
2023-02-17T04:29:56.445Z,7.30
2023-02-17T04:34:59.805Z,7.30
2023-02-17T04:40:10.305Z,7.50
2023-02-17T04:45:14.320Z,7.40
2023-02-17T04:50:19.507Z,7.50
2023-02-17T04:55:25.659Z,7.50
2023-02-17T05:00:29.071Z,7.50
2023-02-17T05:05:32.295Z,7.50
2023-02-17T05:10:36.918Z,7.50
2023-02-17T05:15:40.592Z,7.60
2023-02-17T05:20:43.791Z,7.50
2023-02-17T05:25:49.219Z,7.50
2023-02-17T05:30:52.434Z,7.60
2023-02-17T05:35:55.716Z,7.50
2023-02-17T05:41:00.237Z,7.60
2023-02-17T05:46:04.330Z,7.50
2023-02-17T05:51:07.770Z,7.50
2023-02-17T05:56:13.080Z,7.50
2023-02-17T06:01:16.266Z,7.50
2023-02-17T06:06:20.105Z,7.50
2023-02-17T06:11:25.388Z,7.50
2023-02-17T06:16:28.888Z,7.60
2023-02-17T06:21:32.629Z,7.50
2023-02-17T06:26:37.811Z,7.60
2023-02-17T06:31:41.128Z,7.50
2023-02-17T06:36:44.335Z,7.60
2023-02-17T06:41:48.875Z,7.60
2023-02-17T06:46:52.241Z,7.60
2023-02-17T06:51:55.483Z,7.70
2023-02-17T06:57:00.408Z,7.70
2023-02-17T07:02:03.741Z,7.70
2023-02-17T07:07:07.385Z,7.80
2023-02-17T07:12:12.166Z,8.00
2023-02-17T07:17:15.573Z,8.10
2023-02-17T07:22:18.872Z,8.00
2023-02-17T07:27:24.736Z,8.10
2023-02-17T07:32:28.592Z,8.20
2023-02-17T07:37:31.796Z,8.20
2023-02-17T07:42:36.403Z,8.20
2023-02-17T07:47:39.634Z,8.30
2023-02-17T07:52:42.984Z,8.50
2023-02-17T07:57:47.687Z,8.60
2023-02-17T08:02:50.834Z,8.80
2023-02-17T08:08:13.941Z,8.70
2023-02-17T08:13:21.248Z,8.70
2023-02-17T08:18:24.484Z,8.70
2023-02-17T08:23:27.748Z,8.70
2023-02-17T08:28:33.408Z,9.00
2023-02-17T08:33:36.712Z,8.90
2023-02-17T08:38:40.781Z,8.80
2023-02-17T08:43:45.480Z,8.80
2023-02-17T08:48:49.792Z,8.90
2023-02-17T08:53:55.217Z,9.10
2023-02-17T08:59:01.266Z,9.20
2023-02-17T09:04:07.280Z,9.20
2023-02-17T09:09:12.995Z,9.10
2023-02-17T09:14:18.173Z,9.10
2023-02-17T09:19:22.208Z,9.30
2023-02-17T09:24:25.465Z,9.20
2023-02-17T09:29:30.788Z,9.30
2023-02-17T09:34:35.739Z,9.30
2023-02-17T09:39:39.222Z,9.30
2023-02-17T09:44:46.909Z,9.40
2023-02-17T09:49:53.615Z,9.60
2023-02-17T09:55:04.180Z,9.40
2023-02-17T10:00:13.071Z,9.40
2023-02-17T10:05:20.278Z,9.40
2023-02-17T10:10:28.916Z,9.40
2023-02-17T10:15:38.926Z,9.40
2023-02-17T10:20:46.804Z,9.40
2023-02-17T10:26:10.954Z,9.40
2023-02-17T10:31:26.118Z,9.50
2023-02-17T10:36:39.882Z,9.60
2023-02-17T10:41:52.054Z,9.60
2023-02-17T10:46:57.868Z,9.60
2023-02-17T10:52:02.769Z,9.70
2023-02-17T10:57:10.760Z,9.70
2023-02-17T11:02:19.511Z,9.70
2023-02-17T11:07:32.576Z,9.70
2023-02-17T11:12:41.462Z,9.70
2023-02-17T11:17:47.446Z,9.80
2023-02-17T11:23:01.903Z,9.90
2023-02-17T11:28:10.390Z,10.00
2023-02-17T11:33:20.572Z,10.00
2023-02-17T11:38:26.013Z,10.00
2023-02-17T11:43:30.741Z,10.10
2023-02-17T11:48:49.334Z,10.20
2023-02-17T11:54:03.185Z,10.30
2023-02-17T11:59:27.651Z,10.30
2023-02-17T12:04:34.886Z,10.30
2023-02-17T12:09:48.479Z,10.30
2023-02-17T12:15:07.653Z,10.40
2023-02-17T12:20:33.403Z,10.70
2023-02-17T12:25:39.615Z,10.80
2023-02-17T12:30:55.459Z,11.00
2023-02-17T12:36:03.347Z,11.10
2023-02-17T12:41:12.019Z,11.20
2023-02-17T12:46:18.943Z,11.40
2023-02-17T12:51:28.756Z,11.50
2023-02-17T12:56:46.933Z,11.70
2023-02-17T13:01:55.135Z,11.60
2023-02-17T13:07:33.469Z,11.60
2023-02-17T13:12:40.811Z,11.60
2023-02-17T13:17:53.909Z,11.80
2023-02-17T13:23:07.381Z,11.80
2023-02-17T13:28:35.262Z,11.80
2023-02-17T13:33:45.286Z,11.80
2023-02-17T13:39:02.164Z,11.90
2023-02-17T13:44:24.649Z,11.90
2023-02-17T13:49:32.867Z,11.90
2023-02-17T13:54:37.592Z,12.10
2023-02-17T13:59:41.448Z,12.20
2023-02-17T14:04:45.882Z,12.30
2023-02-17T14:09:54.733Z,12.30
2023-02-17T14:14:58.006Z,12.30
2023-02-17T14:20:01.502Z,12.20
2023-02-17T14:25:11.293Z,12.10
2023-02-17T14:30:27.332Z,12.10
2023-02-17T14:35:35.032Z,12.00
2023-02-17T14:40:40.273Z,11.90
2023-02-17T14:45:43.566Z,11.90
2023-02-17T14:50:48.414Z,11.80
2023-02-17T14:55:58.187Z,11.50
2023-02-17T15:01:01.399Z,11.50
2023-02-17T15:06:11.092Z,11.40
2023-02-17T15:11:19.948Z,11.30
2023-02-17T15:16:23.244Z,11.30
2023-02-17T15:21:29.761Z,11.40
2023-02-17T15:26:34.497Z,11.40
2023-02-17T15:31:38.152Z,11.30
2023-02-17T15:36:41.548Z,11.30
2023-02-17T15:41:48.054Z,11.30
2023-02-17T15:46:54.819Z,11.50
2023-02-17T15:51:58.406Z,11.30
2023-02-17T15:57:03.905Z,11.30
2023-02-17T16:02:20.634Z,11.40
2023-02-17T16:07:25.084Z,11.40
2023-02-17T16:12:30.171Z,11.50
2023-02-17T16:17:33.727Z,11.50
2023-02-17T16:22:37.078Z,11.60
2023-02-17T16:27:43.301Z,11.60
2023-02-17T16:32:47.283Z,11.60
2023-02-17T16:37:54.871Z,11.60
2023-02-17T16:43:00.010Z,11.80
2023-02-17T16:48:03.145Z,11.70
2023-02-17T16:53:10.680Z,11.70
2023-02-17T16:58:18.050Z,11.60
2023-02-17T17:03:24.958Z,11.50
2023-02-17T17:08:28.867Z,11.40
2023-02-17T17:13:34.277Z,11.50
2023-02-17T17:18:37.532Z,11.70
2023-02-17T17:23:41.191Z,11.80
2023-02-17T17:28:48.201Z,11.80
2023-02-17T17:33:52.418Z,11.70
2023-02-17T17:38:57.241Z,11.70
2023-02-17T17:44:01.982Z,11.60
2023-02-17T17:49:10.230Z,11.60
2023-02-17T17:54:13.483Z,11.70
2023-02-17T17:59:18.041Z,11.70
2023-02-17T18:04:21.362Z,11.60
2023-02-17T18:09:32.282Z,11.50
2023-02-17T18:14:38.901Z,11.10
2023-02-17T18:19:42.320Z,10.90
2023-02-17T18:24:47.526Z,10.90
2023-02-17T18:29:55.297Z,10.80
2023-02-17T18:34:59.103Z,10.60
2023-02-17T18:40:03.929Z,10.60
2023-02-17T18:45:09.906Z,10.60
2023-02-17T18:50:15.842Z,10.40
2023-02-17T18:55:20.202Z,10.20
2023-02-17T19:00:25.591Z,10.20
2023-02-17T19:05:30.198Z,10.10
2023-02-17T19:10:33.662Z,9.90
2023-02-17T19:15:38.967Z,9.90
2023-02-17T19:20:43.118Z,9.70
2023-02-17T19:25:46.439Z,9.70
2023-02-17T19:30:51.063Z,9.40
2023-02-17T19:35:54.811Z,9.40
2023-02-17T19:41:01.980Z,9.30
2023-02-17T19:46:07.540Z,9.20
2023-02-17T19:51:13.755Z,9.10
2023-02-17T19:56:19.990Z,9.00
2023-02-17T20:01:26.116Z,8.80
2023-02-17T20:06:33.309Z,8.70
2023-02-17T20:11:36.783Z,8.60
2023-02-17T20:16:41.933Z,8.60
2023-02-17T20:21:46.171Z,8.50
2023-02-17T20:26:53.643Z,8.50
2023-02-17T20:31:58.630Z,8.40
2023-02-17T20:37:02.688Z,8.20
2023-02-17T20:42:06.834Z,8.20
2023-02-17T20:47:12.066Z,8.20
2023-02-17T20:52:15.350Z,8.10
2023-02-17T20:57:19.035Z,8.00
2023-02-17T21:02:23.704Z,8.00
2023-02-17T21:07:27.051Z,8.20
2023-02-17T21:12:30.556Z,8.30
2023-02-17T21:17:35.111Z,8.20
2023-02-17T21:22:38.992Z,8.10
2023-02-17T21:27:42.778Z,8.00
2023-02-17T21:32:48.075Z,7.90
2023-02-17T21:37:51.918Z,7.70
2023-02-17T21:43:14.276Z,7.60
2023-02-17T21:48:21.293Z,7.50
2023-02-17T21:53:24.395Z,7.50
2023-02-17T21:58:28.183Z,7.50
2023-02-17T22:03:33.124Z,7.50
2023-02-17T22:08:36.321Z,7.60
2023-02-17T22:13:39.458Z,7.60
2023-02-17T22:18:44.511Z,7.60
2023-02-17T22:23:48.687Z,7.70
2023-02-17T22:28:52.646Z,7.70
2023-02-17T22:33:58.993Z,7.60
2023-02-17T22:39:04.022Z,7.60
2023-02-17T22:44:08.236Z,7.60
2023-02-17T22:49:12.888Z,7.60
2023-02-17T22:54:16.268Z,7.50
2023-02-17T22:59:19.552Z,7.40
2023-02-17T23:04:24.294Z,7.40
2023-02-17T23:09:27.579Z,7.30
2023-02-17T23:14:33.477Z,7.30
2023-02-17T23:19:39.505Z,7.20
2023-02-17T23:24:43.295Z,7.10
2023-02-17T23:29:47.147Z,7.00
2023-02-17T23:34:51.763Z,6.90
2023-02-17T23:39:55.062Z,6.80
2023-02-17T23:44:58.961Z,6.80
2023-02-17T23:50:04.331Z,6.80
2023-02-17T23:55:09.041Z,6.80
